sensor_id;sensor_type;location;lat;lon;timestamp;P1;durP1;ratioP1;P2;durP2;ratioP2
20629;SDS011;17386;43.846;25.950;2022-07-23T00:01:27;11.20;;;3.67;;
20629;SDS011;17386;43.846;25.950;2022-07-23T00:03:53;7.50;;;3.60;;
20629;SDS011;17386;43.846;25.950;2022-07-23T00:06:20;9.15;;;4.63;;
20629;SDS011;17386;43.846;25.950;2022-07-23T00:08:45;9.90;;;4.05;;
20629;SDS011;17386;43.846;25.950;2022-07-23T00:11:11;11.75;;;3.92;;
20629;SDS011;17386;43.846;25.950;2022-07-23T00:13:37;11.07;;;3.75;;
20629;SDS011;17386;43.846;25.950;2022-07-23T00:16:02;14.50;;;3.67;;
20629;SDS011;17386;43.846;25.950;2022-07-23T00:18:28;8.90;;;4.00;;
20629;SDS011;17386;43.846;25.950;2022-07-23T00:20:54;8.63;;;3.47;;
20629;SDS011;17386;43.846;25.950;2022-07-23T00:23:19;7.43;;;3.65;;
20629;SDS011;17386;43.846;25.950;2022-07-23T00:25:44;9.52;;;3.75;;
20629;SDS011;17386;43.846;25.950;2022-07-23T00:28:10;15.70;;;4.60;;
20629;SDS011;17386;43.846;25.950;2022-07-23T00:30:36;9.85;;;3.90;;
20629;SDS011;17386;43.846;25.950;2022-07-23T00:33:04;10.60;;;3.85;;
20629;SDS011;17386;43.846;25.950;2022-07-23T00:35:35;9.00;;;3.42;;
20629;SDS011;17386;43.846;25.950;2022-07-23T00:38:03;9.88;;;3.55;;
20629;SDS011;17386;43.846;25.950;2022-07-23T00:40:30;7.93;;;3.83;;
20629;SDS011;17386;43.846;25.950;2022-07-23T00:42:55;8.45;;;3.72;;
20629;SDS011;17386;43.846;25.950;2022-07-23T00:45:21;11.95;;;4.57;;
20629;SDS011;17386;43.846;25.950;2022-07-23T00:47:47;21.75;;;4.97;;
20629;SDS011;17386;43.846;25.950;2022-07-23T00:50:13;14.85;;;4.95;;
20629;SDS011;17386;43.846;25.950;2022-07-23T00:52:39;10.05;;;4.03;;
20629;SDS011;17386;43.846;25.950;2022-07-23T00:55:06;10.48;;;3.88;;
20629;SDS011;17386;43.846;25.950;2022-07-23T00:59:58;14.10;;;4.40;;
20629;SDS011;17386;43.846;25.950;2022-07-23T01:02:25;9.25;;;4.28;;
20629;SDS011;17386;43.846;25.950;2022-07-23T01:04:50;9.98;;;3.65;;
20629;SDS011;17386;43.846;25.950;2022-07-23T01:07:16;14.68;;;4.28;;
20629;SDS011;17386;43.846;25.950;2022-07-23T01:09:43;8.30;;;3.45;;
20629;SDS011;17386;43.846;25.950;2022-07-23T01:12:09;10.45;;;3.60;;
20629;SDS011;17386;43.846;25.950;2022-07-23T01:14:35;5.90;;;3.08;;
20629;SDS011;17386;43.846;25.950;2022-07-23T01:17:01;9.27;;;3.00;;
20629;SDS011;17386;43.846;25.950;2022-07-23T01:19:27;6.30;;;2.65;;
20629;SDS011;17386;43.846;25.950;2022-07-23T01:21:52;12.20;;;3.20;;
20629;SDS011;17386;43.846;25.950;2022-07-23T01:24:19;7.93;;;3.10;;
20629;SDS011;17386;43.846;25.950;2022-07-23T01:26:46;6.20;;;2.85;;
20629;SDS011;17386;43.846;25.950;2022-07-23T01:29:12;7.25;;;2.97;;
20629;SDS011;17386;43.846;25.950;2022-07-23T01:31:39;8.75;;;3.00;;
20629;SDS011;17386;43.846;25.950;2022-07-23T01:34:05;16.98;;;2.92;;
20629;SDS011;17386;43.846;25.950;2022-07-23T01:36:32;5.50;;;2.80;;
20629;SDS011;17386;43.846;25.950;2022-07-23T01:38:57;6.97;;;2.58;;
20629;SDS011;17386;43.846;25.950;2022-07-23T01:41:23;13.82;;;3.10;;
20629;SDS011;17386;43.846;25.950;2022-07-23T01:43:48;8.50;;;2.88;;
20629;SDS011;17386;43.846;25.950;2022-07-23T01:46:14;8.60;;;2.63;;
20629;SDS011;17386;43.846;25.950;2022-07-23T01:48:39;9.52;;;3.20;;
20629;SDS011;17386;43.846;25.950;2022-07-23T01:51:05;7.85;;;3.08;;
20629;SDS011;17386;43.846;25.950;2022-07-23T01:53:31;9.63;;;3.38;;
20629;SDS011;17386;43.846;25.950;2022-07-23T01:55:57;7.18;;;2.90;;
20629;SDS011;17386;43.846;25.950;2022-07-23T01:58:23;6.85;;;3.33;;
20629;SDS011;17386;43.846;25.950;2022-07-23T02:00:49;10.18;;;3.22;;
20629;SDS011;17386;43.846;25.950;2022-07-23T02:03:15;8.13;;;3.33;;
20629;SDS011;17386;43.846;25.950;2022-07-23T02:05:40;10.48;;;3.40;;
20629;SDS011;17386;43.846;25.950;2022-07-23T02:08:06;7.05;;;2.97;;
20629;SDS011;17386;43.846;25.950;2022-07-23T02:10:31;6.78;;;2.83;;
20629;SDS011;17386;43.846;25.950;2022-07-23T02:12:57;9.07;;;3.25;;
20629;SDS011;17386;43.846;25.950;2022-07-23T02:15:22;8.43;;;3.38;;
20629;SDS011;17386;43.846;25.950;2022-07-23T02:17:48;22.75;;;6.28;;
20629;SDS011;17386;43.846;25.950;2022-07-23T02:20:13;16.73;;;5.82;;
20629;SDS011;17386;43.846;25.950;2022-07-23T02:22:39;18.15;;;5.50;;
20629;SDS011;17386;43.846;25.950;2022-07-23T02:25:06;13.88;;;5.53;;
20629;SDS011;17386;43.846;25.950;2022-07-23T02:27:33;9.95;;;4.10;;
20629;SDS011;17386;43.846;25.950;2022-07-23T02:29:59;14.45;;;3.80;;
20629;SDS011;17386;43.846;25.950;2022-07-23T02:32:24;11.50;;;3.30;;
20629;SDS011;17386;43.846;25.950;2022-07-23T02:34:50;8.55;;;3.30;;
20629;SDS011;17386;43.846;25.950;2022-07-23T02:37:16;8.73;;;3.20;;
20629;SDS011;17386;43.846;25.950;2022-07-23T02:39:41;9.18;;;2.97;;
20629;SDS011;17386;43.846;25.950;2022-07-23T02:42:07;6.35;;;3.00;;
20629;SDS011;17386;43.846;25.950;2022-07-23T02:44:32;5.05;;;2.75;;
20629;SDS011;17386;43.846;25.950;2022-07-23T02:46:58;8.45;;;2.70;;
20629;SDS011;17386;43.846;25.950;2022-07-23T02:49:23;7.10;;;2.70;;
20629;SDS011;17386;43.846;25.950;2022-07-23T02:51:49;10.98;;;3.22;;
20629;SDS011;17386;43.846;25.950;2022-07-23T02:54:14;6.93;;;2.72;;
20629;SDS011;17386;43.846;25.950;2022-07-23T02:56:40;8.45;;;3.20;;
20629;SDS011;17386;43.846;25.950;2022-07-23T02:59:06;6.43;;;2.70;;
20629;SDS011;17386;43.846;25.950;2022-07-23T03:01:31;11.77;;;3.10;;
20629;SDS011;17386;43.846;25.950;2022-07-23T03:03:56;9.10;;;3.20;;
20629;SDS011;17386;43.846;25.950;2022-07-23T03:06:22;9.70;;;2.97;;
20629;SDS011;17386;43.846;25.950;2022-07-23T03:08:47;5.82;;;2.90;;
20629;SDS011;17386;43.846;25.950;2022-07-23T03:11:13;11.82;;;3.17;;
20629;SDS011;17386;43.846;25.950;2022-07-23T03:13:38;9.48;;;2.92;;
20629;SDS011;17386;43.846;25.950;2022-07-23T03:16:05;7.55;;;2.92;;
20629;SDS011;17386;43.846;25.950;2022-07-23T03:18:31;11.48;;;3.10;;
20629;SDS011;17386;43.846;25.950;2022-07-23T03:20:56;8.20;;;3.28;;
20629;SDS011;17386;43.846;25.950;2022-07-23T03:23:22;13.18;;;4.32;;
20629;SDS011;17386;43.846;25.950;2022-07-23T03:25:47;16.13;;;3.83;;
20629;SDS011;17386;43.846;25.950;2022-07-23T03:28:14;14.00;;;3.33;;
20629;SDS011;17386;43.846;25.950;2022-07-23T03:30:40;8.32;;;2.45;;
20629;SDS011;17386;43.846;25.950;2022-07-23T03:33:11;7.80;;;2.67;;
20629;SDS011;17386;43.846;25.950;2022-07-23T03:35:37;11.10;;;2.42;;
20629;SDS011;17386;43.846;25.950;2022-07-23T03:38:03;6.13;;;2.88;;
20629;SDS011;17386;43.846;25.950;2022-07-23T03:40:28;7.95;;;2.60;;
20629;SDS011;17386;43.846;25.950;2022-07-23T03:42:54;6.68;;;2.20;;
20629;SDS011;17386;43.846;25.950;2022-07-23T03:45:19;7.03;;;2.78;;
20629;SDS011;17386;43.846;25.950;2022-07-23T03:47:44;6.35;;;2.65;;
20629;SDS011;17386;43.846;25.950;2022-07-23T03:50:10;9.15;;;2.80;;
20629;SDS011;17386;43.846;25.950;2022-07-23T03:52:36;10.85;;;4.82;;
20629;SDS011;17386;43.846;25.950;2022-07-23T03:55:02;16.05;;;6.35;;
20629;SDS011;17386;43.846;25.950;2022-07-23T03:57:28;29.10;;;9.00;;
20629;SDS011;17386;43.846;25.950;2022-07-23T03:59:54;29.02;;;9.52;;
20629;SDS011;17386;43.846;25.950;2022-07-23T04:02:20;24.30;;;8.07;;
20629;SDS011;17386;43.846;25.950;2022-07-23T04:04:45;35.35;;;10.82;;
20629;SDS011;17386;43.846;25.950;2022-07-23T04:07:12;37.65;;;10.57;;
20629;SDS011;17386;43.846;25.950;2022-07-23T04:09:38;33.40;;;11.05;;
20629;SDS011;17386;43.846;25.950;2022-07-23T04:12:05;23.15;;;8.77;;
20629;SDS011;17386;43.846;25.950;2022-07-23T04:14:32;17.40;;;7.50;;
20629;SDS011;17386;43.846;25.950;2022-07-23T04:16:58;12.10;;;4.63;;
20629;SDS011;17386;43.846;25.950;2022-07-23T04:19:23;14.40;;;4.10;;
20629;SDS011;17386;43.846;25.950;2022-07-23T04:21:49;9.85;;;3.90;;
20629;SDS011;17386;43.846;25.950;2022-07-23T04:24:15;12.43;;;4.85;;
20629;SDS011;17386;43.846;25.950;2022-07-23T04:26:40;18.58;;;5.28;;
20629;SDS011;17386;43.846;25.950;2022-07-23T04:29:06;16.50;;;5.25;;
20629;SDS011;17386;43.846;25.950;2022-07-23T04:31:31;14.60;;;5.28;;
20629;SDS011;17386;43.846;25.950;2022-07-23T04:33:57;17.00;;;5.18;;
20629;SDS011;17386;43.846;25.950;2022-07-23T04:36:22;17.92;;;5.68;;
20629;SDS011;17386;43.846;25.950;2022-07-23T04:38:47;14.02;;;5.00;;
20629;SDS011;17386;43.846;25.950;2022-07-23T04:41:13;13.05;;;5.40;;
20629;SDS011;17386;43.846;25.950;2022-07-23T04:43:38;9.20;;;3.97;;
20629;SDS011;17386;43.846;25.950;2022-07-23T04:46:04;8.05;;;3.38;;
20629;SDS011;17386;43.846;25.950;2022-07-23T04:48:30;9.70;;;3.50;;
20629;SDS011;17386;43.846;25.950;2022-07-23T04:50:56;7.35;;;3.00;;
20629;SDS011;17386;43.846;25.950;2022-07-23T04:53:21;5.55;;;2.90;;
20629;SDS011;17386;43.846;25.950;2022-07-23T04:55:47;7.28;;;2.42;;
20629;SDS011;17386;43.846;25.950;2022-07-23T04:58:13;6.85;;;3.03;;
20629;SDS011;17386;43.846;25.950;2022-07-23T05:00:38;8.75;;;3.42;;
20629;SDS011;17386;43.846;25.950;2022-07-23T05:03:04;6.40;;;3.33;;
20629;SDS011;17386;43.846;25.950;2022-07-23T05:05:29;11.05;;;2.95;;
20629;SDS011;17386;43.846;25.950;2022-07-23T05:07:54;10.88;;;3.72;;
20629;SDS011;17386;43.846;25.950;2022-07-23T05:10:20;7.25;;;3.10;;
20629;SDS011;17386;43.846;25.950;2022-07-23T05:12:45;10.27;;;3.85;;
20629;SDS011;17386;43.846;25.950;2022-07-23T05:15:11;11.13;;;2.88;;
20629;SDS011;17386;43.846;25.950;2022-07-23T05:17:36;5.28;;;3.13;;
20629;SDS011;17386;43.846;25.950;2022-07-23T05:20:02;5.30;;;3.13;;
20629;SDS011;17386;43.846;25.950;2022-07-23T05:22:28;9.95;;;3.08;;
20629;SDS011;17386;43.846;25.950;2022-07-23T05:24:54;10.75;;;3.25;;
20629;SDS011;17386;43.846;25.950;2022-07-23T05:27:19;10.82;;;3.78;;
20629;SDS011;17386;43.846;25.950;2022-07-23T05:29:44;6.13;;;3.70;;
20629;SDS011;17386;43.846;25.950;2022-07-23T05:32:10;9.10;;;3.65;;
20629;SDS011;17386;43.846;25.950;2022-07-23T05:34:35;9.82;;;3.83;;
20629;SDS011;17386;43.846;25.950;2022-07-23T05:37:01;5.68;;;3.28;;
20629;SDS011;17386;43.846;25.950;2022-07-23T05:39:26;7.80;;;3.97;;
20629;SDS011;17386;43.846;25.950;2022-07-23T05:41:51;8.38;;;3.55;;
20629;SDS011;17386;43.846;25.950;2022-07-23T05:44:17;6.03;;;2.83;;
20629;SDS011;17386;43.846;25.950;2022-07-23T05:46:42;8.77;;;4.30;;
20629;SDS011;17386;43.846;25.950;2022-07-23T05:49:08;6.60;;;2.95;;
20629;SDS011;17386;43.846;25.950;2022-07-23T05:51:33;8.45;;;3.35;;
20629;SDS011;17386;43.846;25.950;2022-07-23T05:53:59;10.07;;;3.42;;
20629;SDS011;17386;43.846;25.950;2022-07-23T05:56:24;7.20;;;2.95;;
20629;SDS011;17386;43.846;25.950;2022-07-23T05:58:50;10.30;;;3.35;;
20629;SDS011;17386;43.846;25.950;2022-07-23T06:01:15;5.30;;;2.85;;
20629;SDS011;17386;43.846;25.950;2022-07-23T06:03:41;7.75;;;3.20;;
20629;SDS011;17386;43.846;25.950;2022-07-23T06:06:06;7.45;;;3.75;;
20629;SDS011;17386;43.846;25.950;2022-07-23T06:08:32;8.23;;;3.47;;
20629;SDS011;17386;43.846;25.950;2022-07-23T06:10:57;6.13;;;3.47;;
20629;SDS011;17386;43.846;25.950;2022-07-23T06:13:23;9.73;;;5.32;;
20629;SDS011;17386;43.846;25.950;2022-07-23T06:15:48;5.78;;;3.33;;
20629;SDS011;17386;43.846;25.950;2022-07-23T06:18:14;7.43;;;3.38;;
20629;SDS011;17386;43.846;25.950;2022-07-23T06:20:39;8.30;;;3.83;;
20629;SDS011;17386;43.846;25.950;2022-07-23T06:23:05;6.88;;;2.88;;
20629;SDS011;17386;43.846;25.950;2022-07-23T06:25:31;10.40;;;3.70;;
20629;SDS011;17386;43.846;25.950;2022-07-23T06:27:56;10.88;;;4.07;;
20629;SDS011;17386;43.846;25.950;2022-07-23T06:30:21;8.75;;;4.28;;
20629;SDS011;17386;43.846;25.950;2022-07-23T06:32:47;8.90;;;4.10;;
20629;SDS011;17386;43.846;25.950;2022-07-23T06:35:14;8.52;;;4.32;;
20629;SDS011;17386;43.846;25.950;2022-07-23T06:37:40;11.38;;;5.13;;
20629;SDS011;17386;43.846;25.950;2022-07-23T06:40:05;10.70;;;4.45;;
20629;SDS011;17386;43.846;25.950;2022-07-23T06:42:31;7.15;;;4.63;;
20629;SDS011;17386;43.846;25.950;2022-07-23T06:44:57;9.43;;;3.85;;
20629;SDS011;17386;43.846;25.950;2022-07-23T06:47:23;9.90;;;4.60;;
20629;SDS011;17386;43.846;25.950;2022-07-23T06:49:48;8.10;;;4.50;;
20629;SDS011;17386;43.846;25.950;2022-07-23T06:52:14;8.63;;;4.00;;
20629;SDS011;17386;43.846;25.950;2022-07-23T06:54:39;9.68;;;4.05;;
20629;SDS011;17386;43.846;25.950;2022-07-23T06:57:04;10.57;;;4.15;;
20629;SDS011;17386;43.846;25.950;2022-07-23T06:59:30;13.32;;;5.03;;
20629;SDS011;17386;43.846;25.950;2022-07-23T07:01:55;11.73;;;4.82;;
20629;SDS011;17386;43.846;25.950;2022-07-23T07:04:22;10.77;;;5.05;;
20629;SDS011;17386;43.846;25.950;2022-07-23T07:06:48;9.45;;;5.20;;
20629;SDS011;17386;43.846;25.950;2022-07-23T07:09:13;14.10;;;5.45;;
20629;SDS011;17386;43.846;25.950;2022-07-23T07:11:39;10.43;;;4.82;;
20629;SDS011;17386;43.846;25.950;2022-07-23T07:14:04;10.35;;;4.75;;
20629;SDS011;17386;43.846;25.950;2022-07-23T07:16:30;12.05;;;4.60;;
20629;SDS011;17386;43.846;25.950;2022-07-23T07:18:55;9.55;;;3.97;;
20629;SDS011;17386;43.846;25.950;2022-07-23T07:21:20;18.20;;;5.57;;
20629;SDS011;17386;43.846;25.950;2022-07-23T07:23:46;9.85;;;4.07;;
20629;SDS011;17386;43.846;25.950;2022-07-23T07:26:11;9.02;;;3.75;;
20629;SDS011;17386;43.846;25.950;2022-07-23T07:28:37;7.45;;;4.07;;
20629;SDS011;17386;43.846;25.950;2022-07-23T07:31:02;9.57;;;4.57;;
20629;SDS011;17386;43.846;25.950;2022-07-23T07:33:28;10.77;;;4.60;;
20629;SDS011;17386;43.846;25.950;2022-07-23T07:35:54;10.52;;;4.78;;
20629;SDS011;17386;43.846;25.950;2022-07-23T07:38:19;9.38;;;5.47;;
20629;SDS011;17386;43.846;25.950;2022-07-23T07:40:45;10.23;;;4.68;;
20629;SDS011;17386;43.846;25.950;2022-07-23T07:43:10;7.93;;;4.32;;
20629;SDS011;17386;43.846;25.950;2022-07-23T07:45:36;12.85;;;4.15;;
20629;SDS011;17386;43.846;25.950;2022-07-23T07:48:01;8.27;;;4.22;;
20629;SDS011;17386;43.846;25.950;2022-07-23T07:50:27;10.82;;;4.60;;
20629;SDS011;17386;43.846;25.950;2022-07-23T07:52:52;12.65;;;4.68;;
20629;SDS011;17386;43.846;25.950;2022-07-23T07:55:18;16.30;;;4.60;;
20629;SDS011;17386;43.846;25.950;2022-07-23T07:57:43;9.60;;;4.75;;
20629;SDS011;17386;43.846;25.950;2022-07-23T08:00:09;12.55;;;5.60;;
20629;SDS011;17386;43.846;25.950;2022-07-23T08:02:43;13.93;;;5.55;;
20629;SDS011;17386;43.846;25.950;2022-07-23T08:05:09;16.13;;;7.07;;
20629;SDS011;17386;43.846;25.950;2022-07-23T08:07:35;21.98;;;6.70;;
20629;SDS011;17386;43.846;25.950;2022-07-23T08:10:02;25.08;;;7.90;;
20629;SDS011;17386;43.846;25.950;2022-07-23T08:12:28;25.23;;;6.03;;
20629;SDS011;17386;43.846;25.950;2022-07-23T08:14:53;15.70;;;5.55;;
20629;SDS011;17386;43.846;25.950;2022-07-23T08:17:18;15.15;;;4.78;;
20629;SDS011;17386;43.846;25.950;2022-07-23T08:19:44;17.05;;;5.43;;
20629;SDS011;17386;43.846;25.950;2022-07-23T08:22:09;17.70;;;4.78;;
20629;SDS011;17386;43.846;25.950;2022-07-23T08:24:35;29.40;;;6.22;;
20629;SDS011;17386;43.846;25.950;2022-07-23T08:27:00;19.42;;;5.95;;
20629;SDS011;17386;43.846;25.950;2022-07-23T08:29:26;19.15;;;6.18;;
20629;SDS011;17386;43.846;25.950;2022-07-23T08:31:51;22.30;;;5.85;;
20629;SDS011;17386;43.846;25.950;2022-07-23T08:34:17;14.20;;;5.28;;
20629;SDS011;17386;43.846;25.950;2022-07-23T08:36:42;16.48;;;5.80;;
20629;SDS011;17386;43.846;25.950;2022-07-23T08:39:07;16.52;;;5.28;;
20629;SDS011;17386;43.846;25.950;2022-07-23T08:41:35;9.77;;;4.50;;
20629;SDS011;17386;43.846;25.950;2022-07-23T08:44:06;8.77;;;4.60;;
20629;SDS011;17386;43.846;25.950;2022-07-23T08:46:32;12.82;;;4.57;;
20629;SDS011;17386;43.846;25.950;2022-07-23T08:48:58;12.82;;;5.53;;
20629;SDS011;17386;43.846;25.950;2022-07-23T08:51:25;11.25;;;5.22;;
20629;SDS011;17386;43.846;25.950;2022-07-23T08:53:52;14.13;;;4.85;;
20629;SDS011;17386;43.846;25.950;2022-07-23T08:56:17;16.38;;;4.65;;
20629;SDS011;17386;43.846;25.950;2022-07-23T08:58:43;13.88;;;5.13;;
20629;SDS011;17386;43.846;25.950;2022-07-23T09:01:08;10.40;;;4.22;;
20629;SDS011;17386;43.846;25.950;2022-07-23T09:03:35;12.73;;;5.03;;
20629;SDS011;17386;43.846;25.950;2022-07-23T09:06:02;8.23;;;3.83;;
20629;SDS011;17386;43.846;25.950;2022-07-23T09:11:04;9.20;;;3.30;;
20629;SDS011;17386;43.846;25.950;2022-07-23T09:16:07;7.40;;;3.75;;
20629;SDS011;17386;43.846;25.950;2022-07-23T09:23:58;9.38;;;4.93;;
20629;SDS011;17386;43.846;25.950;2022-07-23T09:26:41;11.85;;;3.92;;
20629;SDS011;17386;43.846;25.950;2022-07-23T09:31:50;11.23;;;4.20;;
20629;SDS011;17386;43.846;25.950;2022-07-23T09:34:24;9.55;;;3.58;;
20629;SDS011;17386;43.846;25.950;2022-07-23T09:36:55;11.63;;;4.50;;
20629;SDS011;17386;43.846;25.950;2022-07-23T09:39:26;8.23;;;4.13;;
20629;SDS011;17386;43.846;25.950;2022-07-23T09:41:52;8.90;;;3.72;;
20629;SDS011;17386;43.846;25.950;2022-07-23T09:44:18;8.32;;;3.45;;
20629;SDS011;17386;43.846;25.950;2022-07-23T09:46:46;15.40;;;3.83;;
20629;SDS011;17386;43.846;25.950;2022-07-23T09:49:14;8.77;;;4.45;;
20629;SDS011;17386;43.846;25.950;2022-07-23T09:51:57;12.70;;;3.88;;
20629;SDS011;17386;43.846;25.950;2022-07-23T09:57:00;10.20;;;3.83;;
20629;SDS011;17386;43.846;25.950;2022-07-23T09:59:30;6.55;;;3.42;;
20629;SDS011;17386;43.846;25.950;2022-07-23T10:01:58;5.50;;;3.42;;
20629;SDS011;17386;43.846;25.950;2022-07-23T10:04:25;15.07;;;4.40;;
20629;SDS011;17386;43.846;25.950;2022-07-23T10:06:53;13.60;;;4.18;;
20629;SDS011;17386;43.846;25.950;2022-07-23T10:09:24;9.00;;;3.47;;
20629;SDS011;17386;43.846;25.950;2022-07-23T10:11:56;7.38;;;3.50;;
20629;SDS011;17386;43.846;25.950;2022-07-23T10:14:27;8.35;;;4.10;;
20629;SDS011;17386;43.846;25.950;2022-07-23T10:16:56;9.20;;;4.18;;
20629;SDS011;17386;43.846;25.950;2022-07-23T10:19:22;8.85;;;3.83;;
20629;SDS011;17386;43.846;25.950;2022-07-23T10:21:49;12.85;;;3.80;;
20629;SDS011;17386;43.846;25.950;2022-07-23T10:24:21;8.77;;;3.80;;
20629;SDS011;17386;43.846;25.950;2022-07-23T10:26:55;8.60;;;3.42;;
20629;SDS011;17386;43.846;25.950;2022-07-23T10:32:45;11.07;;;4.13;;
20629;SDS011;17386;43.846;25.950;2022-07-23T10:35:22;7.65;;;4.10;;
20629;SDS011;17386;43.846;25.950;2022-07-23T10:38:01;10.45;;;3.88;;
20629;SDS011;17386;43.846;25.950;2022-07-23T10:40:32;6.43;;;3.53;;
20629;SDS011;17386;43.846;25.950;2022-07-23T10:42:58;8.35;;;4.30;;
20629;SDS011;17386;43.846;25.950;2022-07-23T10:45:35;10.70;;;3.85;;
20629;SDS011;17386;43.846;25.950;2022-07-23T10:48:15;7.93;;;4.07;;
20629;SDS011;17386;43.846;25.950;2022-07-23T10:50:40;7.18;;;3.75;;
20629;SDS011;17386;43.846;25.950;2022-07-23T10:53:11;8.48;;;3.47;;
20629;SDS011;17386;43.846;25.950;2022-07-23T10:58:08;6.43;;;3.78;;
20629;SDS011;17386;43.846;25.950;2022-07-23T11:00:34;9.85;;;4.00;;
20629;SDS011;17386;43.846;25.950;2022-07-23T11:03:03;9.90;;;3.78;;
20629;SDS011;17386;43.846;25.950;2022-07-23T11:10:44;10.10;;;3.92;;
20629;SDS011;17386;43.846;25.950;2022-07-23T11:32:06;8.73;;;4.43;;
20629;SDS011;17386;43.846;25.950;2022-07-23T11:34:34;9.23;;;4.85;;
20629;SDS011;17386;43.846;25.950;2022-07-23T11:37:06;11.38;;;4.40;;
20629;SDS011;17386;43.846;25.950;2022-07-23T11:39:33;9.32;;;4.22;;
20629;SDS011;17386;43.846;25.950;2022-07-23T11:42:00;9.35;;;4.18;;
20629;SDS011;17386;43.846;25.950;2022-07-23T11:44:30;11.38;;;4.18;;
20629;SDS011;17386;43.846;25.950;2022-07-23T11:46:58;8.55;;;4.00;;
20629;SDS011;17386;43.846;25.950;2022-07-23T11:49:29;8.20;;;4.40;;
20629;SDS011;17386;43.846;25.950;2022-07-23T11:54:50;7.72;;;4.35;;
20629;SDS011;17386;43.846;25.950;2022-07-23T11:57:18;8.13;;;3.78;;
20629;SDS011;17386;43.846;25.950;2022-07-23T11:59:50;6.32;;;3.92;;
20629;SDS011;17386;43.846;25.950;2022-07-23T12:02:19;6.20;;;3.92;;
20629;SDS011;17386;43.846;25.950;2022-07-23T12:04:46;7.80;;;3.83;;
20629;SDS011;17386;43.846;25.950;2022-07-23T12:10:45;7.88;;;4.20;;
20629;SDS011;17386;43.846;25.950;2022-07-23T12:12:53;10.25;;;4.70;;
20629;SDS011;17386;43.846;25.950;2022-07-23T12:15:21;9.00;;;4.13;;
20629;SDS011;17386;43.846;25.950;2022-07-23T12:17:52;9.85;;;4.85;;
20629;SDS011;17386;43.846;25.950;2022-07-23T12:20:23;6.05;;;4.03;;
20629;SDS011;17386;43.846;25.950;2022-07-23T12:22:51;9.18;;;4.53;;
20629;SDS011;17386;43.846;25.950;2022-07-23T12:25:22;8.23;;;4.95;;
20629;SDS011;17386;43.846;25.950;2022-07-23T12:28:09;6.45;;;4.40;;
20629;SDS011;17386;43.846;25.950;2022-07-23T12:30:41;8.98;;;4.20;;
20629;SDS011;17386;43.846;25.950;2022-07-23T12:33:08;5.72;;;4.03;;
20629;SDS011;17386;43.846;25.950;2022-07-23T12:35:36;10.60;;;4.30;;
20629;SDS011;17386;43.846;25.950;2022-07-23T12:38:06;9.65;;;4.20;;
20629;SDS011;17386;43.846;25.950;2022-07-23T12:40:36;9.65;;;4.30;;
20629;SDS011;17386;43.846;25.950;2022-07-23T12:43:23;9.95;;;4.03;;
20629;SDS011;17386;43.846;25.950;2022-07-23T12:45:51;7.95;;;4.07;;
20629;SDS011;17386;43.846;25.950;2022-07-23T12:53:39;12.52;;;4.45;;
20629;SDS011;17386;43.846;25.950;2022-07-23T12:56:10;9.43;;;4.70;;
20629;SDS011;17386;43.846;25.950;2022-07-23T12:58:56;7.13;;;4.00;;
20629;SDS011;17386;43.846;25.950;2022-07-23T13:06:33;6.72;;;4.88;;
20629;SDS011;17386;43.846;25.950;2022-07-23T13:09:07;8.75;;;4.10;;
20629;SDS011;17386;43.846;25.950;2022-07-23T13:11:34;9.48;;;5.18;;
20629;SDS011;17386;43.846;25.950;2022-07-23T13:14:00;6.80;;;4.10;;
20629;SDS011;17386;43.846;25.950;2022-07-23T13:16:26;13.73;;;4.95;;
20629;SDS011;17386;43.846;25.950;2022-07-23T13:18:52;9.88;;;4.53;;
20629;SDS011;17386;43.846;25.950;2022-07-23T13:21:18;8.23;;;4.57;;
20629;SDS011;17386;43.846;25.950;2022-07-23T13:23:43;9.30;;;4.43;;
20629;SDS011;17386;43.846;25.950;2022-07-23T13:26:09;8.32;;;4.43;;
20629;SDS011;17386;43.846;25.950;2022-07-23T13:28:35;7.13;;;4.05;;
20629;SDS011;17386;43.846;25.950;2022-07-23T13:31:00;10.73;;;4.25;;
20629;SDS011;17386;43.846;25.950;2022-07-23T13:33:26;6.75;;;4.25;;
20629;SDS011;17386;43.846;25.950;2022-07-23T13:35:51;8.35;;;5.03;;
20629;SDS011;17386;43.846;25.950;2022-07-23T13:38:18;9.73;;;4.70;;
20629;SDS011;17386;43.846;25.950;2022-07-23T13:40:45;9.10;;;4.32;;
20629;SDS011;17386;43.846;25.950;2022-07-23T13:43:13;9.50;;;4.60;;
20629;SDS011;17386;43.846;25.950;2022-07-23T13:45:40;12.25;;;4.90;;
20629;SDS011;17386;43.846;25.950;2022-07-23T13:48:09;12.27;;;5.28;;
20629;SDS011;17386;43.846;25.950;2022-07-23T13:53:02;10.88;;;4.72;;
20629;SDS011;17386;43.846;25.950;2022-07-23T13:55:29;12.77;;;4.50;;
20629;SDS011;17386;43.846;25.950;2022-07-23T13:57:56;9.40;;;5.18;;
20629;SDS011;17386;43.846;25.950;2022-07-23T14:00:22;12.18;;;4.65;;
20629;SDS011;17386;43.846;25.950;2022-07-23T14:02:47;8.50;;;5.05;;
20629;SDS011;17386;43.846;25.950;2022-07-23T14:05:13;10.98;;;4.53;;
20629;SDS011;17386;43.846;25.950;2022-07-23T14:07:38;7.82;;;4.80;;
20629;SDS011;17386;43.846;25.950;2022-07-23T14:10:06;12.40;;;4.90;;
20629;SDS011;17386;43.846;25.950;2022-07-23T14:12:32;8.32;;;4.90;;
20629;SDS011;17386;43.846;25.950;2022-07-23T14:14:58;11.40;;;4.47;;
20629;SDS011;17386;43.846;25.950;2022-07-23T14:17:23;7.88;;;4.43;;
20629;SDS011;17386;43.846;25.950;2022-07-23T14:19:49;11.05;;;5.00;;
20629;SDS011;17386;43.846;25.950;2022-07-23T14:22:15;10.85;;;4.38;;
20629;SDS011;17386;43.846;25.950;2022-07-23T14:24:41;9.93;;;4.60;;
20629;SDS011;17386;43.846;25.950;2022-07-23T14:27:07;9.13;;;4.45;;
20629;SDS011;17386;43.846;25.950;2022-07-23T14:29:32;9.05;;;4.70;;
20629;SDS011;17386;43.846;25.950;2022-07-23T14:31:58;8.30;;;4.50;;
20629;SDS011;17386;43.846;25.950;2022-07-23T14:34:24;8.75;;;4.20;;
20629;SDS011;17386;43.846;25.950;2022-07-23T14:36:50;8.35;;;5.13;;
20629;SDS011;17386;43.846;25.950;2022-07-23T14:39:16;7.35;;;4.20;;
20629;SDS011;17386;43.846;25.950;2022-07-23T14:41:41;10.30;;;5.60;;
20629;SDS011;17386;43.846;25.950;2022-07-23T14:44:07;8.30;;;4.90;;
20629;SDS011;17386;43.846;25.950;2022-07-23T14:46:32;7.63;;;4.82;;
20629;SDS011;17386;43.846;25.950;2022-07-23T14:48:58;6.95;;;4.20;;
20629;SDS011;17386;43.846;25.950;2022-07-23T14:51:24;11.23;;;5.13;;
20629;SDS011;17386;43.846;25.950;2022-07-23T14:53:49;10.52;;;4.22;;
20629;SDS011;17386;43.846;25.950;2022-07-23T14:56:14;9.77;;;4.75;;
20629;SDS011;17386;43.846;25.950;2022-07-23T14:58:40;6.05;;;4.13;;
20629;SDS011;17386;43.846;25.950;2022-07-23T15:01:06;10.88;;;4.43;;
20629;SDS011;17386;43.846;25.950;2022-07-23T15:03:32;8.40;;;4.20;;
20629;SDS011;17386;43.846;25.950;2022-07-23T15:05:58;9.23;;;4.22;;
20629;SDS011;17386;43.846;25.950;2022-07-23T15:08:23;10.60;;;5.00;;
20629;SDS011;17386;43.846;25.950;2022-07-23T15:10:49;10.00;;;5.50;;
20629;SDS011;17386;43.846;25.950;2022-07-23T15:13:15;8.48;;;4.70;;
20629;SDS011;17386;43.846;25.950;2022-07-23T15:15:40;9.38;;;4.82;;
20629;SDS011;17386;43.846;25.950;2022-07-23T15:18:06;9.88;;;5.00;;
20629;SDS011;17386;43.846;25.950;2022-07-23T15:20:31;8.02;;;4.28;;
20629;SDS011;17386;43.846;25.950;2022-07-23T15:22:57;12.73;;;4.43;;
20629;SDS011;17386;43.846;25.950;2022-07-23T15:25:23;11.32;;;4.38;;
20629;SDS011;17386;43.846;25.950;2022-07-23T15:27:49;11.30;;;4.45;;
20629;SDS011;17386;43.846;25.950;2022-07-23T15:30:14;10.57;;;4.63;;
20629;SDS011;17386;43.846;25.950;2022-07-23T15:32:40;7.95;;;4.55;;